sensor_id;sensor_type;location;lat;lon;timestamp;P1;durP1;ratioP1;P2;durP2;ratioP2
40501;SDS011;29631;49.168;9.848;2023-04-06T00:01:40;5.60;;;5.10;;
40501;SDS011;29631;49.168;9.848;2023-04-06T00:04:06;6.47;;;5.72;;
40501;SDS011;29631;49.168;9.848;2023-04-06T00:06:32;5.20;;;4.80;;
40501;SDS011;29631;49.168;9.848;2023-04-06T00:08:59;5.95;;;5.45;;
40501;SDS011;29631;49.168;9.848;2023-04-06T00:11:25;5.28;;;4.88;;
40501;SDS011;29631;49.168;9.848;2023-04-06T00:13:51;5.32;;;4.90;;
40501;SDS011;29631;49.168;9.848;2023-04-06T00:16:17;5.40;;;4.97;;
40501;SDS011;29631;49.168;9.848;2023-04-06T00:18:43;5.20;;;4.88;;
40501;SDS011;29631;49.168;9.848;2023-04-06T00:21:11;5.55;;;5.05;;
40501;SDS011;29631;49.168;9.848;2023-04-06T00:23:41;6.90;;;5.20;;
40501;SDS011;29631;49.168;9.848;2023-04-06T00:26:07;6.15;;;5.53;;
40501;SDS011;29631;49.168;9.848;2023-04-06T00:28:33;5.60;;;5.10;;
40501;SDS011;29631;49.168;9.848;2023-04-06T00:30:59;6.32;;;5.10;;
40501;SDS011;29631;49.168;9.848;2023-04-06T00:33:25;5.53;;;5.05;;
40501;SDS011;29631;49.168;9.848;2023-04-06T00:35:51;5.18;;;4.72;;
40501;SDS011;29631;49.168;9.848;2023-04-06T00:38:17;5.47;;;5.07;;
40501;SDS011;29631;49.168;9.848;2023-04-06T00:40:43;5.88;;;5.28;;
40501;SDS011;29631;49.168;9.848;2023-04-06T00:43:12;6.25;;;5.03;;
40501;SDS011;29631;49.168;9.848;2023-04-06T00:45:39;5.40;;;4.85;;
40501;SDS011;29631;49.168;9.848;2023-04-06T00:48:05;5.43;;;5.03;;
40501;SDS011;29631;49.168;9.848;2023-04-06T00:50:32;5.70;;;4.90;;
40501;SDS011;29631;49.168;9.848;2023-04-06T00:52:58;5.40;;;4.90;;
40501;SDS011;29631;49.168;9.848;2023-04-06T00:55:25;4.82;;;4.43;;
40501;SDS011;29631;49.168;9.848;2023-04-06T00:57:52;5.47;;;4.97;;
40501;SDS011;29631;49.168;9.848;2023-04-06T01:00:18;5.32;;;4.82;;
40501;SDS011;29631;49.168;9.848;2023-04-06T01:02:44;5.32;;;4.50;;
40501;SDS011;29631;49.168;9.848;2023-04-06T01:05:11;5.40;;;4.72;;
40501;SDS011;29631;49.168;9.848;2023-04-06T01:07:37;5.15;;;4.75;;
40501;SDS011;29631;49.168;9.848;2023-04-06T01:10:02;4.82;;;4.43;;
40501;SDS011;29631;49.168;9.848;2023-04-06T01:12:29;5.18;;;4.72;;
40501;SDS011;29631;49.168;9.848;2023-04-06T01:14:55;5.30;;;4.90;;
40501;SDS011;29631;49.168;9.848;2023-04-06T01:17:21;4.63;;;4.18;;
40501;SDS011;29631;49.168;9.848;2023-04-06T01:19:47;4.93;;;4.55;;
40501;SDS011;29631;49.168;9.848;2023-04-06T01:22:17;5.03;;;4.63;;
40501;SDS011;29631;49.168;9.848;2023-04-06T01:24:44;4.72;;;4.32;;
40501;SDS011;29631;49.168;9.848;2023-04-06T01:27:11;5.18;;;4.78;;
40501;SDS011;29631;49.168;9.848;2023-04-06T01:29:37;4.88;;;4.47;;
40501;SDS011;29631;49.168;9.848;2023-04-06T01:32:06;4.32;;;4.03;;
40501;SDS011;29631;49.168;9.848;2023-04-06T01:34:32;4.57;;;4.18;;
40501;SDS011;29631;49.168;9.848;2023-04-06T01:36:58;4.50;;;4.20;;
40501;SDS011;29631;49.168;9.848;2023-04-06T01:39:24;4.22;;;3.92;;
40501;SDS011;29631;49.168;9.848;2023-04-06T01:41:50;5.43;;;4.93;;
40501;SDS011;29631;49.168;9.848;2023-04-06T01:44:16;5.45;;;4.95;;
40501;SDS011;29631;49.168;9.848;2023-04-06T01:46:43;4.88;;;4.47;;
40501;SDS011;29631;49.168;9.848;2023-04-06T01:49:10;5.07;;;4.68;;
40501;SDS011;29631;49.168;9.848;2023-04-06T01:51:37;4.72;;;4.32;;
40501;SDS011;29631;49.168;9.848;2023-04-06T01:54:02;4.70;;;4.38;;
40501;SDS011;29631;49.168;9.848;2023-04-06T01:56:28;5.15;;;4.75;;
40501;SDS011;29631;49.168;9.848;2023-04-06T01:58:54;5.05;;;4.65;;
40501;SDS011;29631;49.168;9.848;2023-04-06T02:01:20;5.05;;;4.65;;
40501;SDS011;29631;49.168;9.848;2023-04-06T02:03:46;5.57;;;5.07;;
40501;SDS011;29631;49.168;9.848;2023-04-06T02:06:12;5.38;;;4.97;;
40501;SDS011;29631;49.168;9.848;2023-04-06T02:08:37;5.53;;;5.03;;
40501;SDS011;29631;49.168;9.848;2023-04-06T02:11:03;4.72;;;4.38;;
40501;SDS011;29631;49.168;9.848;2023-04-06T02:13:29;5.13;;;4.72;;
40501;SDS011;29631;49.168;9.848;2023-04-06T02:15:55;5.70;;;5.30;;
40501;SDS011;29631;49.168;9.848;2023-04-06T02:18:22;5.45;;;4.90;;
40501;SDS011;29631;49.168;9.848;2023-04-06T02:20:48;5.80;;;5.22;;
40501;SDS011;29631;49.168;9.848;2023-04-06T02:23:13;5.82;;;5.35;;
40501;SDS011;29631;49.168;9.848;2023-04-06T02:25:39;6.28;;;5.10;;
40501;SDS011;29631;49.168;9.848;2023-04-06T02:28:05;5.05;;;4.65;;
40501;SDS011;29631;49.168;9.848;2023-04-06T02:30:31;5.20;;;4.70;;
40501;SDS011;29631;49.168;9.848;2023-04-06T02:32:59;6.25;;;5.10;;
40501;SDS011;29631;49.168;9.848;2023-04-06T02:35:27;5.47;;;5.07;;
40501;SDS011;29631;49.168;9.848;2023-04-06T02:37:54;5.68;;;5.18;;
40501;SDS011;29631;49.168;9.848;2023-04-06T02:40:19;6.28;;;5.78;;
40501;SDS011;29631;49.168;9.848;2023-04-06T02:42:45;5.38;;;4.97;;
40501;SDS011;29631;49.168;9.848;2023-04-06T02:45:11;5.93;;;5.43;;
40501;SDS011;29631;49.168;9.848;2023-04-06T02:47:37;7.00;;;5.40;;
40501;SDS011;29631;49.168;9.848;2023-04-06T02:50:03;5.95;;;5.38;;
40501;SDS011;29631;49.168;9.848;2023-04-06T02:52:29;6.30;;;5.80;;
40501;SDS011;29631;49.168;9.848;2023-04-06T02:54:55;6.07;;;5.57;;
40501;SDS011;29631;49.168;9.848;2023-04-06T02:57:21;5.78;;;5.10;;
40501;SDS011;29631;49.168;9.848;2023-04-06T02:59:47;5.85;;;5.38;;
40501;SDS011;29631;49.168;9.848;2023-04-06T03:02:12;5.82;;;5.32;;
40501;SDS011;29631;49.168;9.848;2023-04-06T03:04:38;5.97;;;5.38;;
40501;SDS011;29631;49.168;9.848;2023-04-06T03:07:04;6.32;;;5.80;;
40501;SDS011;29631;49.168;9.848;2023-04-06T03:09:30;5.97;;;5.45;;
40501;SDS011;29631;49.168;9.848;2023-04-06T03:11:55;5.93;;;5.43;;
40501;SDS011;29631;49.168;9.848;2023-04-06T03:14:22;5.60;;;5.10;;
40501;SDS011;29631;49.168;9.848;2023-04-06T03:16:48;5.63;;;5.13;;
40501;SDS011;29631;49.168;9.848;2023-04-06T03:19:14;5.80;;;5.22;;
40501;SDS011;29631;49.168;9.848;2023-04-06T03:21:40;5.57;;;5.07;;
40501;SDS011;29631;49.168;9.848;2023-04-06T03:24:07;5.82;;;5.32;;
40501;SDS011;29631;49.168;9.848;2023-04-06T03:26:32;5.88;;;5.32;;
40501;SDS011;29631;49.168;9.848;2023-04-06T03:28:58;7.05;;;4.80;;
40501;SDS011;29631;49.168;9.848;2023-04-06T03:31:25;6.13;;;5.63;;
40501;SDS011;29631;49.168;9.848;2023-04-06T03:33:52;5.93;;;5.43;;
40501;SDS011;29631;49.168;9.848;2023-04-06T03:36:17;5.72;;;5.32;;
40501;SDS011;29631;49.168;9.848;2023-04-06T03:38:43;5.60;;;5.13;;
40501;SDS011;29631;49.168;9.848;2023-04-06T03:41:09;6.00;;;5.53;;
40501;SDS011;29631;49.168;9.848;2023-04-06T03:43:35;5.50;;;5.10;;
40501;SDS011;29631;49.168;9.848;2023-04-06T03:46:01;5.90;;;5.32;;
40501;SDS011;29631;49.168;9.848;2023-04-06T03:48:26;5.78;;;5.22;;
40501;SDS011;29631;49.168;9.848;2023-04-06T03:50:52;6.03;;;5.32;;
40501;SDS011;29631;49.168;9.848;2023-04-06T03:53:18;5.75;;;5.07;;
40501;SDS011;29631;49.168;9.848;2023-04-06T03:55:43;6.28;;;5.78;;
40501;SDS011;29631;49.168;9.848;2023-04-06T03:58:09;5.68;;;5.18;;
40501;SDS011;29631;49.168;9.848;2023-04-06T04:00:35;6.05;;;5.55;;
40501;SDS011;29631;49.168;9.848;2023-04-06T04:03:01;6.05;;;5.40;;
40501;SDS011;29631;49.168;9.848;2023-04-06T04:05:27;6.28;;;5.65;;
40501;SDS011;29631;49.168;9.848;2023-04-06T04:07:53;6.63;;;5.90;;
40501;SDS011;29631;49.168;9.848;2023-04-06T04:10:19;6.43;;;5.85;;
40501;SDS011;29631;49.168;9.848;2023-04-06T04:12:44;7.30;;;5.85;;
40501;SDS011;29631;49.168;9.848;2023-04-06T04:15:10;7.57;;;5.57;;
40501;SDS011;29631;49.168;9.848;2023-04-06T04:17:36;6.15;;;5.38;;
40501;SDS011;29631;49.168;9.848;2023-04-06T04:20:02;7.03;;;5.68;;
40501;SDS011;29631;49.168;9.848;2023-04-06T04:22:28;5.25;;;4.82;;
40501;SDS011;29631;49.168;9.848;2023-04-06T04:24:53;5.57;;;5.10;;
40501;SDS011;29631;49.168;9.848;2023-04-06T04:27:19;5.22;;;4.82;;
40501;SDS011;29631;49.168;9.848;2023-04-06T04:29:45;5.53;;;5.03;;
40501;SDS011;29631;49.168;9.848;2023-04-06T04:32:11;7.10;;;5.25;;
40501;SDS011;29631;49.168;9.848;2023-04-06T04:34:37;6.95;;;5.28;;
40501;SDS011;29631;49.168;9.848;2023-04-06T04:37:05;5.95;;;5.45;;
40501;SDS011;29631;49.168;9.848;2023-04-06T04:39:31;6.53;;;5.43;;
40501;SDS011;29631;49.168;9.848;2023-04-06T04:41:57;5.78;;;5.25;;
40501;SDS011;29631;49.168;9.848;2023-04-06T04:44:23;7.70;;;5.22;;
40501;SDS011;29631;49.168;9.848;2023-04-06T04:46:49;6.18;;;4.93;;
40501;SDS011;29631;49.168;9.848;2023-04-06T04:49:14;5.70;;;5.20;;
40501;SDS011;29631;49.168;9.848;2023-04-06T04:51:40;6.03;;;5.50;;
40501;SDS011;29631;49.168;9.848;2023-04-06T04:54:06;6.57;;;5.15;;
40501;SDS011;29631;49.168;9.848;2023-04-06T04:56:31;7.22;;;5.93;;
40501;SDS011;29631;49.168;9.848;2023-04-06T04:58:57;7.82;;;4.80;;
40501;SDS011;29631;49.168;9.848;2023-04-06T05:01:23;5.82;;;5.32;;
40501;SDS011;29631;49.168;9.848;2023-04-06T05:03:49;7.30;;;5.63;;
40501;SDS011;29631;49.168;9.848;2023-04-06T05:06:15;6.22;;;5.70;;
40501;SDS011;29631;49.168;9.848;2023-04-06T05:08:41;5.68;;;5.18;;
40501;SDS011;29631;49.168;9.848;2023-04-06T05:11:07;7.07;;;5.93;;
40501;SDS011;29631;49.168;9.848;2023-04-06T05:13:33;6.03;;;5.50;;
40501;SDS011;29631;49.168;9.848;2023-04-06T05:15:59;6.95;;;6.07;;
40501;SDS011;29631;49.168;9.848;2023-04-06T05:18:25;7.03;;;5.55;;
40501;SDS011;29631;49.168;9.848;2023-04-06T05:20:51;6.20;;;5.70;;
40501;SDS011;29631;49.168;9.848;2023-04-06T05:23:17;6.00;;;5.35;;
40501;SDS011;29631;49.168;9.848;2023-04-06T05:25:42;6.20;;;5.60;;
40501;SDS011;29631;49.168;9.848;2023-04-06T05:28:08;6.22;;;5.63;;
40501;SDS011;29631;49.168;9.848;2023-04-06T05:30:34;6.22;;;5.65;;
40501;SDS011;29631;49.168;9.848;2023-04-06T05:33:00;5.95;;;5.45;;
40501;SDS011;29631;49.168;9.848;2023-04-06T05:35:27;6.20;;;5.63;;
40501;SDS011;29631;49.168;9.848;2023-04-06T05:37:52;6.75;;;5.60;;
40501;SDS011;29631;49.168;9.848;2023-04-06T05:40:18;6.97;;;5.50;;
40501;SDS011;29631;49.168;9.848;2023-04-06T05:42:44;6.47;;;5.93;;
40501;SDS011;29631;49.168;9.848;2023-04-06T05:45:10;5.55;;;5.15;;
40501;SDS011;29631;49.168;9.848;2023-04-06T05:47:41;6.40;;;5.63;;
40501;SDS011;29631;49.168;9.848;2023-04-06T05:50:08;6.82;;;5.55;;
40501;SDS011;29631;49.168;9.848;2023-04-06T05:52:35;6.07;;;5.57;;
40501;SDS011;29631;49.168;9.848;2023-04-06T05:55:00;6.03;;;5.53;;
40501;SDS011;29631;49.168;9.848;2023-04-06T05:57:27;6.55;;;6.03;;
40501;SDS011;29631;49.168;9.848;2023-04-06T05:59:53;10.25;;;6.03;;
40501;SDS011;29631;49.168;9.848;2023-04-06T06:02:20;6.22;;;5.63;;
40501;SDS011;29631;49.168;9.848;2023-04-06T06:04:46;6.25;;;5.65;;
40501;SDS011;29631;49.168;9.848;2023-04-06T06:07:12;6.03;;;5.18;;
40501;SDS011;29631;49.168;9.848;2023-04-06T06:09:38;6.05;;;5.43;;
40501;SDS011;29631;49.168;9.848;2023-04-06T06:12:04;5.88;;;5.38;;
40501;SDS011;29631;49.168;9.848;2023-04-06T06:14:30;8.48;;;5.65;;
40501;SDS011;29631;49.168;9.848;2023-04-06T06:16:56;5.97;;;5.45;;
40501;SDS011;29631;49.168;9.848;2023-04-06T06:19:21;7.07;;;5.65;;
40501;SDS011;29631;49.168;9.848;2023-04-06T06:21:47;6.20;;;5.50;;
40501;SDS011;29631;49.168;9.848;2023-04-06T06:24:13;5.88;;;5.38;;
40501;SDS011;29631;49.168;9.848;2023-04-06T06:26:38;5.85;;;5.35;;
40501;SDS011;29631;49.168;9.848;2023-04-06T06:29:04;5.72;;;5.22;;
40501;SDS011;29631;49.168;9.848;2023-04-06T06:31:31;5.30;;;4.68;;
40501;SDS011;29631;49.168;9.848;2023-04-06T06:33:57;7.35;;;5.60;;
40501;SDS011;29631;49.168;9.848;2023-04-06T06:36:23;6.43;;;5.45;;
40501;SDS011;29631;49.168;9.848;2023-04-06T06:38:50;7.03;;;5.45;;
40501;SDS011;29631;49.168;9.848;2023-04-06T06:41:16;7.18;;;5.85;;
40501;SDS011;29631;49.168;9.848;2023-04-06T06:43:42;7.55;;;5.82;;
40501;SDS011;29631;49.168;9.848;2023-04-06T06:46:08;6.13;;;5.65;;
40501;SDS011;29631;49.168;9.848;2023-04-06T06:48:34;5.65;;;5.15;;
40501;SDS011;29631;49.168;9.848;2023-04-06T06:51:00;7.03;;;5.53;;
40501;SDS011;29631;49.168;9.848;2023-04-06T06:53:26;8.13;;;5.88;;
40501;SDS011;29631;49.168;9.848;2023-04-06T06:55:51;7.47;;;5.82;;
40501;SDS011;29631;49.168;9.848;2023-04-06T06:58:17;6.38;;;5.78;;
40501;SDS011;29631;49.168;9.848;2023-04-06T07:00:45;6.00;;;5.40;;
40501;SDS011;29631;49.168;9.848;2023-04-06T07:03:11;5.38;;;4.88;;
40501;SDS011;29631;49.168;9.848;2023-04-06T07:05:36;6.43;;;5.93;;
40501;SDS011;29631;49.168;9.848;2023-04-06T07:08:02;5.93;;;5.43;;
40501;SDS011;29631;49.168;9.848;2023-04-06T07:10:28;5.35;;;4.85;;
40501;SDS011;29631;49.168;9.848;2023-04-06T07:12:54;6.75;;;5.72;;
40501;SDS011;29631;49.168;9.848;2023-04-06T07:15:20;6.45;;;5.82;;
40501;SDS011;29631;49.168;9.848;2023-04-06T07:17:46;8.20;;;5.50;;
40501;SDS011;29631;49.168;9.848;2023-04-06T07:20:12;6.53;;;5.80;;
40501;SDS011;29631;49.168;9.848;2023-04-06T07:22:40;6.07;;;5.28;;
40501;SDS011;29631;49.168;9.848;2023-04-06T07:25:09;7.47;;;5.88;;
40501;SDS011;29631;49.168;9.848;2023-04-06T07:27:35;6.45;;;5.13;;
40501;SDS011;29631;49.168;9.848;2023-04-06T07:30:01;6.43;;;5.82;;
40501;SDS011;29631;49.168;9.848;2023-04-06T07:32:26;6.45;;;5.85;;
40501;SDS011;29631;49.168;9.848;2023-04-06T07:34:52;6.80;;;5.88;;
40501;SDS011;29631;49.168;9.848;2023-04-06T07:37:18;7.15;;;5.55;;
40501;SDS011;29631;49.168;9.848;2023-04-06T07:39:44;6.38;;;5.78;;
40501;SDS011;29631;49.168;9.848;2023-04-06T07:42:10;5.88;;;5.28;;
40501;SDS011;29631;49.168;9.848;2023-04-06T07:44:36;6.75;;;6.13;;
40501;SDS011;29631;49.168;9.848;2023-04-06T07:47:01;5.50;;;5.03;;
40501;SDS011;29631;49.168;9.848;2023-04-06T07:49:27;6.95;;;5.75;;
40501;SDS011;29631;49.168;9.848;2023-04-06T07:51:53;6.00;;;5.40;;
40501;SDS011;29631;49.168;9.848;2023-04-06T07:54:19;6.15;;;5.55;;
40501;SDS011;29631;49.168;9.848;2023-04-06T07:56:45;7.05;;;5.70;;
40501;SDS011;29631;49.168;9.848;2023-04-06T07:59:10;6.53;;;5.93;;
40501;SDS011;29631;49.168;9.848;2023-04-06T08:01:36;6.25;;;5.65;;
40501;SDS011;29631;49.168;9.848;2023-04-06T08:04:02;8.07;;;6.00;;
40501;SDS011;29631;49.168;9.848;2023-04-06T08:06:29;8.75;;;6.28;;
40501;SDS011;29631;49.168;9.848;2023-04-06T08:08:55;6.50;;;5.95;;
40501;SDS011;29631;49.168;9.848;2023-04-06T08:11:20;6.90;;;6.30;;
40501;SDS011;29631;49.168;9.848;2023-04-06T08:13:46;6.88;;;6.07;;
40501;SDS011;29631;49.168;9.848;2023-04-06T08:16:12;6.97;;;5.90;;
40501;SDS011;29631;49.168;9.848;2023-04-06T08:18:38;19.40;;;6.95;;
40501;SDS011;29631;49.168;9.848;2023-04-06T08:21:04;7.05;;;6.35;;
40501;SDS011;29631;49.168;9.848;2023-04-06T08:23:29;6.57;;;5.97;;
40501;SDS011;29631;49.168;9.848;2023-04-06T08:25:55;7.07;;;5.45;;
40501;SDS011;29631;49.168;9.848;2023-04-06T08:28:21;8.63;;;6.78;;
40501;SDS011;29631;49.168;9.848;2023-04-06T08:30:47;12.00;;;6.78;;
40501;SDS011;29631;49.168;9.848;2023-04-06T08:33:13;7.25;;;6.55;;
40501;SDS011;29631;49.168;9.848;2023-04-06T08:35:38;7.28;;;6.63;;
40501;SDS011;29631;49.168;9.848;2023-04-06T08:38:05;7.55;;;6.25;;
40501;SDS011;29631;49.168;9.848;2023-04-06T08:40:35;8.07;;;6.03;;
40501;SDS011;29631;49.168;9.848;2023-04-06T08:43:09;7.25;;;6.57;;
40501;SDS011;29631;49.168;9.848;2023-04-06T08:45:39;7.55;;;6.22;;
40501;SDS011;29631;49.168;9.848;2023-04-06T08:48:06;7.25;;;6.55;;
40501;SDS011;29631;49.168;9.848;2023-04-06T08:50:33;9.77;;;7.00;;
40501;SDS011;29631;49.168;9.848;2023-04-06T08:52:59;6.88;;;6.32;;
40501;SDS011;29631;49.168;9.848;2023-04-06T08:55:26;8.30;;;6.53;;
40501;SDS011;29631;49.168;9.848;2023-04-06T08:57:52;7.03;;;6.43;;
40501;SDS011;29631;49.168;9.848;2023-04-06T09:00:20;7.32;;;6.70;;
40501;SDS011;29631;49.168;9.848;2023-04-06T09:02:46;8.00;;;6.68;;
40501;SDS011;29631;49.168;9.848;2023-04-06T09:05:13;7.20;;;6.55;;
40501;SDS011;29631;49.168;9.848;2023-04-06T09:07:40;7.50;;;6.00;;
40501;SDS011;29631;49.168;9.848;2023-04-06T09:10:06;7.05;;;6.45;;
40501;SDS011;29631;49.168;9.848;2023-04-06T09:12:32;5.88;;;5.40;;
40501;SDS011;29631;49.168;9.848;2023-04-06T09:14:59;6.95;;;6.28;;
40501;SDS011;29631;49.168;9.848;2023-04-06T09:17:26;5.32;;;4.93;;
40501;SDS011;29631;49.168;9.848;2023-04-06T09:19:55;5.53;;;5.13;;
40501;SDS011;29631;49.168;9.848;2023-04-06T09:22:22;6.13;;;5.63;;
40501;SDS011;29631;49.168;9.848;2023-04-06T09:24:51;6.40;;;5.90;;
40501;SDS011;29631;49.168;9.848;2023-04-06T09:27:28;7.88;;;6.28;;
40501;SDS011;29631;49.168;9.848;2023-04-06T09:30:03;6.32;;;5.82;;
40501;SDS011;29631;49.168;9.848;2023-04-06T09:32:44;6.72;;;6.13;;
40501;SDS011;29631;49.168;9.848;2023-04-06T09:35:16;9.52;;;6.68;;
40501;SDS011;29631;49.168;9.848;2023-04-06T09:37:45;6.50;;;5.95;;
40501;SDS011;29631;49.168;9.848;2023-04-06T09:40:13;5.72;;;5.22;;
40501;SDS011;29631;49.168;9.848;2023-04-06T09:42:42;7.53;;;6.82;;
40501;SDS011;29631;49.168;9.848;2023-04-06T09:45:11;9.25;;;6.57;;
40501;SDS011;29631;49.168;9.848;2023-04-06T09:47:39;7.20;;;6.20;;
40501;SDS011;29631;49.168;9.848;2023-04-06T09:50:10;6.25;;;5.75;;
40501;SDS011;29631;49.168;9.848;2023-04-06T09:52:40;6.65;;;6.05;;
40501;SDS011;29631;49.168;9.848;2023-04-06T09:55:48;5.93;;;5.43;;
40501;SDS011;29631;49.168;9.848;2023-04-06T09:58:12;6.93;;;5.45;;
40501;SDS011;29631;49.168;9.848;2023-04-06T10:06:21;6.60;;;6.10;;
40501;SDS011;29631;49.168;9.848;2023-04-06T10:08:52;6.68;;;6.07;;
40501;SDS011;29631;49.168;9.848;2023-04-06T10:11:21;5.78;;;5.28;;
40501;SDS011;29631;49.168;9.848;2023-04-06T10:13:47;5.95;;;5.45;;
40501;SDS011;29631;49.168;9.848;2023-04-06T10:16:14;6.07;;;5.60;;
40501;SDS011;29631;49.168;9.848;2023-04-06T10:18:41;6.30;;;5.80;;
40501;SDS011;29631;49.168;9.848;2023-04-06T10:21:17;5.82;;;5.43;;
40501;SDS011;29631;49.168;9.848;2023-04-06T10:23:52;6.93;;;6.43;;
40501;SDS011;29631;49.168;9.848;2023-04-06T10:26:23;6.47;;;5.97;;
40501;SDS011;29631;49.168;9.848;2023-04-06T10:28:50;6.35;;;5.85;;
40501;SDS011;29631;49.168;9.848;2023-04-06T10:31:23;7.05;;;6.35;;
40501;SDS011;29631;49.168;9.848;2023-04-06T10:34:09;6.60;;;6.10;;
40501;SDS011;29631;49.168;9.848;2023-04-06T10:36:35;6.32;;;5.82;;
40501;SDS011;29631;49.168;9.848;2023-04-06T10:39:02;6.18;;;5.70;;
40501;SDS011;29631;49.168;9.848;2023-04-06T10:41:34;7.05;;;6.35;;
40501;SDS011;29631;49.168;9.848;2023-04-06T10:44:06;6.53;;;5.93;;
40501;SDS011;29631;49.168;9.848;2023-04-06T10:46:32;6.50;;;6.00;;
40501;SDS011;29631;49.168;9.848;2023-04-06T10:49:09;6.68;;;6.05;;
40501;SDS011;29631;49.168;9.848;2023-04-06T10:51:39;6.65;;;6.05;;
40501;SDS011;29631;49.168;9.848;2023-04-06T10:54:06;7.05;;;6.45;;
40501;SDS011;29631;49.168;9.848;2023-04-06T10:56:32;6.97;;;6.40;;
40501;SDS011;29631;49.168;9.848;2023-04-06T10:59:01;6.82;;;6.28;;
40501;SDS011;29631;49.168;9.848;2023-04-06T11:01:27;6.97;;;6.47;;
40501;SDS011;29631;49.168;9.848;2023-04-06T11:03:54;7.32;;;6.82;;
40501;SDS011;29631;49.168;9.848;2023-04-06T11:06:28;6.65;;;6.15;;
40501;SDS011;29631;49.168;9.848;2023-04-06T11:08:56;6.85;;;6.30;;
40501;SDS011;29631;49.168;9.848;2023-04-06T11:11:24;7.22;;;5.78;;
40501;SDS011;29631;49.168;9.848;2023-04-06T11:13:58;6.68;;;6.13;;
40501;SDS011;29631;49.168;9.848;2023-04-06T11:16:29;6.65;;;6.05;;
40501;SDS011;29631;49.168;9.848;2023-04-06T11:21:34;6.60;;;6.00;;
40501;SDS011;29631;49.168;9.848;2023-04-06T11:24:09;6.25;;;5.75;;
40501;SDS011;29631;49.168;9.848;2023-04-06T11:29:16;6.30;;;5.63;;
40501;SDS011;29631;49.168;9.848;2023-04-06T11:31:45;6.30;;;5.80;;
40501;SDS011;29631;49.168;9.848;2023-04-06T11:34:19;6.63;;;6.13;;
40501;SDS011;29631;49.168;9.848;2023-04-06T11:36:48;6.38;;;5.88;;
40501;SDS011;29631;49.168;9.848;2023-04-06T11:39:23;6.05;;;5.55;;
40501;SDS011;29631;49.168;9.848;2023-04-06T11:41:51;6.32;;;5.82;;
40501;SDS011;29631;49.168;9.848;2023-04-06T11:47:01;5.45;;;5.07;;
40501;SDS011;29631;49.168;9.848;2023-04-06T11:49:31;5.88;;;5.38;;
40501;SDS011;29631;49.168;9.848;2023-04-06T11:52:01;6.22;;;5.63;;
40501;SDS011;29631;49.168;9.848;2023-04-06T11:54:34;6.20;;;5.70;;
40501;SDS011;29631;49.168;9.848;2023-04-06T11:57:02;5.80;;;5.40;;
40501;SDS011;29631;49.168;9.848;2023-04-06T11:59:30;6.28;;;5.68;;
40501;SDS011;29631;49.168;9.848;2023-04-06T12:02:00;5.93;;;5.43;;
40501;SDS011;29631;49.168;9.848;2023-04-06T12:04:27;5.45;;;5.10;;
40501;SDS011;29631;49.168;9.848;2023-04-06T12:06:52;5.70;;;5.30;;
40501;SDS011;29631;49.168;9.848;2023-04-06T12:09:18;5.55;;;5.13;;
40501;SDS011;29631;49.168;9.848;2023-04-06T12:11:44;4.75;;;4.45;;
40501;SDS011;29631;49.168;9.848;2023-04-06T12:14:10;5.55;;;5.15;;
40501;SDS011;29631;49.168;9.848;2023-04-06T12:16:37;6.28;;;5.78;;
40501;SDS011;29631;49.168;9.848;2023-04-06T12:19:03;5.40;;;5.00;;
40501;SDS011;29631;49.168;9.848;2023-04-06T12:21:30;6.40;;;5.90;;
40501;SDS011;29631;49.168;9.848;2023-04-06T12:23:57;6.13;;;5.63;;
40501;SDS011;29631;49.168;9.848;2023-04-06T12:26:23;6.60;;;6.00;;
40501;SDS011;29631;49.168;9.848;2023-04-06T12:28:50;8.20;;;5.32;;
40501;SDS011;29631;49.168;9.848;2023-04-06T12:31:20;5.35;;;4.95;;
40501;SDS011;29631;49.168;9.848;2023-04-06T12:33:47;5.40;;;5.00;;
40501;SDS011;29631;49.168;9.848;2023-04-06T12:36:15;5.75;;;5.25;;
40501;SDS011;29631;49.168;9.848;2023-04-06T12:38:49;5.43;;;5.03;;
40501;SDS011;29631;49.168;9.848;2023-04-06T12:41:16;5.13;;;4.82;;
40501;SDS011;29631;49.168;9.848;2023-04-06T12:43:42;5.72;;;5.32;;
40501;SDS011;29631;49.168;9.848;2023-04-06T12:46:09;4.82;;;4.53;;
40501;SDS011;29631;49.168;9.848;2023-04-06T12:48:35;4.97;;;4.68;;
40501;SDS011;29631;49.168;9.848;2023-04-06T12:51:02;5.63;;;5.22;;
40501;SDS011;29631;49.168;9.848;2023-04-06T12:53:30;5.03;;;4.63;;
40501;SDS011;29631;49.168;9.848;2023-04-06T12:55:57;5.72;;;4.85;;
40501;SDS011;29631;49.168;9.848;2023-04-06T12:58:24;5.82;;;5.32;;
40501;SDS011;29631;49.168;9.848;2023-04-06T13:00:54;5.80;;;5.30;;
40501;SDS011;29631;49.168;9.848;2023-04-06T13:03:21;5.82;;;5.32;;
40501;SDS011;29631;49.168;9.848;2023-04-06T13:05:47;5.35;;;4.95;;
40501;SDS011;29631;49.168;9.848;2023-04-06T13:08:18;5.10;;;4.70;;
40501;SDS011;29631;49.168;9.848;2023-04-06T13:10:46;5.25;;;4.72;;
40501;SDS011;29631;49.168;9.848;2023-04-06T13:13:14;5.15;;;4.75;;
40501;SDS011;29631;49.168;9.848;2023-04-06T13:15:40;5.25;;;4.85;;
40501;SDS011;29631;49.168;9.848;2023-04-06T13:18:06;5.35;;;4.85;;
40501;SDS011;29631;49.168;9.848;2023-04-06T13:20:33;5.15;;;4.85;;
40501;SDS011;29631;49.168;9.848;2023-04-06T13:22:59;5.07;;;4.53;;
40501;SDS011;29631;49.168;9.848;2023-04-06T13:25:25;5.28;;;4.78;;
40501;SDS011;29631;49.168;9.848;2023-04-06T13:27:51;5.97;;;5.47;;
40501;SDS011;29631;49.168;9.848;2023-04-06T13:30:17;5.57;;;5.15;;
40501;SDS011;29631;49.168;9.848;2023-04-06T13:32:42;5.45;;;5.05;;
40501;SDS011;29631;49.168;9.848;2023-04-06T13:35:08;5.60;;;5.18;;
40501;SDS011;29631;49.168;9.848;2023-04-06T13:37:34;5.47;;;5.07;;
40501;SDS011;29631;49.168;9.848;2023-04-06T13:40:04;5.25;;;4.85;;
40501;SDS011;29631;49.168;9.848;2023-04-06T13:42:31;5.35;;;4.95;;
40501;SDS011;29631;49.168;9.848;2023-04-06T13:44:57;5.13;;;4.78;;
40501;SDS011;29631;49.168;9.848;2023-04-06T13:47:24;5.70;;;5.22;;
40501;SDS011;29631;49.168;9.848;2023-04-06T13:49:50;5.57;;;5.07;;
40501;SDS011;29631;49.168;9.848;2023-04-06T13:52:17;8.25;;;5.45;;
40501;SDS011;29631;49.168;9.848;2023-04-06T13:54:44;5.18;;;4.78;;
40501;SDS011;29631;49.168;9.848;2023-04-06T13:57:10;4.70;;;4.40;;
40501;SDS011;29631;49.168;9.848;2023-04-06T13:59:37;5.05;;;4.72;;
40501;SDS011;29631;49.168;9.848;2023-04-06T14:02:04;4.90;;;4.60;;
40501;SDS011;29631;49.168;9.848;2023-04-06T14:04:33;5.20;;;4.80;;
40501;SDS011;29631;49.168;9.848;2023-04-06T14:06:59;5.57;;;5.18;;
40501;SDS011;29631;49.168;9.848;2023-04-06T14:09:26;5.00;;;4.60;;
40501;SDS011;29631;49.168;9.848;2023-04-06T14:11:53;10.25;;;7.22;;
40501;SDS011;29631;49.168;9.848;2023-04-06T14:14:20;11.57;;;9.15;;
40501;SDS011;29631;49.168;9.848;2023-04-06T14:16:46;6.55;;;6.00;;
40501;SDS011;29631;49.168;9.848;2023-04-06T14:19:12;5.70;;;5.30;;
40501;SDS011;29631;49.168;9.848;2023-04-06T14:21:46;6.18;;;5.65;;
40501;SDS011;29631;49.168;9.848;2023-04-06T14:24:13;5.05;;;4.70;;
40501;SDS011;29631;49.168;9.848;2023-04-06T14:26:39;4.82;;;4.43;;
40501;SDS011;29631;49.168;9.848;2023-04-06T14:29:09;6.05;;;5.47;;
40501;SDS011;29631;49.168;9.848;2023-04-06T14:31:35;5.45;;;5.05;;
40501;SDS011;29631;49.168;9.848;2023-04-06T14:34:02;4.82;;;4.43;;
40501;SDS011;29631;49.168;9.848;2023-04-06T14:36:29;6.38;;;5.55;;
40501;SDS011;29631;49.168;9.848;2023-04-06T14:39:01;5.93;;;5.43;;
40501;SDS011;29631;49.168;9.848;2023-04-06T14:41:31;6.15;;;5.65;;
40501;SDS011;29631;49.168;9.848;2023-04-06T14:43:58;7.25;;;5.57;;
40501;SDS011;29631;49.168;9.848;2023-04-06T14:46:24;5.43;;;4.93;;
40501;SDS011;29631;49.168;9.848;2023-04-06T14:48:52;5.60;;;4.70;;
40501;SDS011;29631;49.168;9.848;2023-04-06T14:51:21;5.82;;;4.78;;
40501;SDS011;29631;49.168;9.848;2023-04-06T14:53:50;6.65;;;6.15;;
40501;SDS011;29631;49.168;9.848;2023-04-06T14:56:19;8.05;;;7.25;;
40501;SDS011;29631;49.168;9.848;2023-04-06T14:58:47;9.00;;;7.35;;
40501;SDS011;29631;49.168;9.848;2023-04-06T15:01:13;7.15;;;6.55;;